Terminal Aerodrome Forecast
Issued by NWS Sterling, VA

Current Version | Previous Version | Graphics & Text | Print | Product List | Glossary Off
Versions: 1 2 3 4 5 6 7 8 9 10 11 12 13 14 15 16 17 18 19 20 21 22 23 24

369
FTUS41 KLWX 181459 AAA
TAFDCA
TAF AMD
KDCA 181459Z 1815/1918 VRB03KT P6SM SCT050
     FM181600 21006KT P6SM BKN050
     FM190800 VRB03KT P6SM SCT040
     FM191500 22006KT P6SM FEW250
     FM191700 23010KT P6SM FEW250=

USA.gov is the U.S. government's official web portal to all federal, state and local government web resources and services.